Cimbria — V2CC7 — position and weather

sailwx.info

Track history (hours):
 
Tides and Currents Weather Stations Pressure Air Temp Water Temp Dewpoint Dewpoint Depression Visibility Wind Speed Wind Dir Waves Ship Positions

Cimbria

Last reported at 2014-Dec-15 00:32 UTC. Time now 2014-Dec-23 05:10 UTC.
Position N 34°29' E 033°29'.
Warning: this ship's position is 8 days out of date.

Length 109 m; draft 6.8 m.

Type: Cargo ship. MMSI: 304981000.

Date/timePositionNaut miles runAvg speedWind from/ knotsBaromVisibWave heightAir tempDewpointWater temp
2014-Dec-15 00:32N 34°29' E 033°29'1010.6
2014-Dec-14 23:33N 34°27' E 033°17'1110.8
2014-Dec-14 22:34N 34°24' E 033°04'1010.2
2014-Dec-14 21:33N 34°23' E 032°51'1110.5
2014-Dec-14 20:34N 34°26' E 032°39'1110.5
2014-Dec-14 19:33N 34°30' E 032°27'33010.3
2014-Dec-13 11:33N 37°08' E 026°30'2110.5
2014-Dec-13 09:34N 37°20' E 026°09'1110.5
2014-Dec-13 08:34N 37°27' E 025°58'9 9.4
2014-Dec-13 07:33N 37°34' E 025°51'1310.6
2014-Dec-13 06:20N 37°47' E 025°50'1010.2
2014-Dec-13 05:21N 37°57' E 025°49'  
Track history (hours):
 
Tides and Currents Weather Stations Pressure Air Temp Water Temp Dewpoint Dewpoint Depression Visibility Wind Speed Wind Dir Waves Ship Positions

Cimbria

Last reported at 2014-Dec-15 00:32 UTC. Time now 2014-Dec-23 05:10 UTC.
Position N 34°29' E 033°29'.
Warning: this ship's position is 8 days out of date.

Length 109 m; draft 6.8 m.

Type: Cargo ship. MMSI: 304981000.

Date/timePositionNaut miles runAvg speedWind from/ knotsBaromVisibWave heightAir tempDewpointWater temp
2014-Dec-15 00:32N 34°29' E 033°29'1010.6
2014-Dec-14 23:33N 34°27' E 033°17'1110.8
2014-Dec-14 22:34N 34°24' E 033°04'1010.2
2014-Dec-14 21:33N 34°23' E 032°51'1110.5
2014-Dec-14 20:34N 34°26' E 032°39'1110.5
2014-Dec-14 19:33N 34°30' E 032°27'33010.3
2014-Dec-13 11:33N 37°08' E 026°30'2110.5
2014-Dec-13 09:34N 37°20' E 026°09'1110.5
2014-Dec-13 08:34N 37°27' E 025°58'9 9.4
2014-Dec-13 07:33N 37°34' E 025°51'1310.6
2014-Dec-13 06:20N 37°47' E 025°50'1010.2
2014-Dec-13 05:21N 37°57' E 025°49'  

Dump ship's entire track history